sensor_id;sensor_type;location;lat;lon;timestamp;P1;durP1;ratioP1;P2;durP2;ratioP2
6386;SDS011;3226;42.162;24.756;2023-02-28T00:01:09;6.63;;;6.33;;
6386;SDS011;3226;42.162;24.756;2023-02-28T00:03:38;7.40;;;7.10;;
6386;SDS011;3226;42.162;24.756;2023-02-28T00:06:06;6.67;;;6.37;;
6386;SDS011;3226;42.162;24.756;2023-02-28T00:08:37;7.10;;;6.80;;
6386;SDS011;3226;42.162;24.756;2023-02-28T00:11:06;7.03;;;6.73;;
6386;SDS011;3226;42.162;24.756;2023-02-28T00:13:36;6.87;;;6.57;;
6386;SDS011;3226;42.162;24.756;2023-02-28T00:16:08;6.17;;;5.97;;
6386;SDS011;3226;42.162;24.756;2023-02-28T00:18:37;6.50;;;6.20;;
6386;SDS011;3226;42.162;24.756;2023-02-28T00:21:06;6.63;;;6.33;;
6386;SDS011;3226;42.162;24.756;2023-02-28T00:23:36;5.60;;;5.40;;
6386;SDS011;3226;42.162;24.756;2023-02-28T00:26:04;7.03;;;6.73;;
6386;SDS011;3226;42.162;24.756;2023-02-28T00:28:32;6.73;;;6.43;;
6386;SDS011;3226;42.162;24.756;2023-02-28T00:31:02;7.50;;;7.20;;
6386;SDS011;3226;42.162;24.756;2023-02-28T00:33:31;6.80;;;6.50;;
6386;SDS011;3226;42.162;24.756;2023-02-28T00:36:03;6.87;;;6.57;;
6386;SDS011;3226;42.162;24.756;2023-02-28T00:38:32;6.07;;;5.87;;
6386;SDS011;3226;42.162;24.756;2023-02-28T00:41:02;6.53;;;6.23;;
6386;SDS011;3226;42.162;24.756;2023-02-28T00:43:31;7.13;;;6.83;;
6386;SDS011;3226;42.162;24.756;2023-02-28T00:46:00;6.30;;;6.07;;
6386;SDS011;3226;42.162;24.756;2023-02-28T00:48:29;6.20;;;6.00;;
6386;SDS011;3226;42.162;24.756;2023-02-28T00:50:57;7.13;;;6.83;;
6386;SDS011;3226;42.162;24.756;2023-02-28T00:53:25;7.43;;;7.13;;
6386;SDS011;3226;42.162;24.756;2023-02-28T00:55:53;6.20;;;6.00;;
6386;SDS011;3226;42.162;24.756;2023-02-28T00:58:23;6.73;;;6.43;;
6386;SDS011;3226;42.162;24.756;2023-02-28T01:00:51;7.03;;;6.73;;
6386;SDS011;3226;42.162;24.756;2023-02-28T01:03:20;6.23;;;6.00;;
6386;SDS011;3226;42.162;24.756;2023-02-28T01:05:49;6.47;;;6.17;;
6386;SDS011;3226;42.162;24.756;2023-02-28T01:08:19;5.83;;;5.63;;
6386;SDS011;3226;42.162;24.756;2023-02-28T01:10:47;7.07;;;6.77;;
6386;SDS011;3226;42.162;24.756;2023-02-28T01:13:15;6.67;;;6.37;;
6386;SDS011;3226;42.162;24.756;2023-02-28T01:15:45;7.00;;;6.70;;
6386;SDS011;3226;42.162;24.756;2023-02-28T01:18:17;6.93;;;6.63;;
6386;SDS011;3226;42.162;24.756;2023-02-28T01:20:45;6.47;;;6.17;;
6386;SDS011;3226;42.162;24.756;2023-02-28T01:23:13;6.77;;;6.47;;
6386;SDS011;3226;42.162;24.756;2023-02-28T01:25:41;6.03;;;5.83;;
6386;SDS011;3226;42.162;24.756;2023-02-28T01:28:10;7.73;;;7.43;;
6386;SDS011;3226;42.162;24.756;2023-02-28T01:30:38;6.43;;;6.13;;
6386;SDS011;3226;42.162;24.756;2023-02-28T01:33:07;6.27;;;6.03;;
6386;SDS011;3226;42.162;24.756;2023-02-28T01:35:35;6.80;;;6.50;;
6386;SDS011;3226;42.162;24.756;2023-02-28T01:38:03;7.17;;;6.87;;
6386;SDS011;3226;42.162;24.756;2023-02-28T01:40:46;6.90;;;6.60;;
6386;SDS011;3226;42.162;24.756;2023-02-28T01:43:17;7.57;;;7.27;;
6386;SDS011;3226;42.162;24.756;2023-02-28T01:45:49;7.03;;;6.73;;
6386;SDS011;3226;42.162;24.756;2023-02-28T01:48:19;7.37;;;7.07;;
6386;SDS011;3226;42.162;24.756;2023-02-28T01:50:50;7.67;;;7.37;;
6386;SDS011;3226;42.162;24.756;2023-02-28T01:53:21;7.83;;;7.53;;
6386;SDS011;3226;42.162;24.756;2023-02-28T01:55:57;7.97;;;7.67;;
6386;SDS011;3226;42.162;24.756;2023-02-28T01:58:25;6.80;;;6.50;;
6386;SDS011;3226;42.162;24.756;2023-02-28T02:00:53;7.07;;;6.77;;
6386;SDS011;3226;42.162;24.756;2023-02-28T02:03:23;7.47;;;7.17;;
6386;SDS011;3226;42.162;24.756;2023-02-28T02:05:51;7.47;;;7.17;;
6386;SDS011;3226;42.162;24.756;2023-02-28T02:08:19;7.10;;;6.80;;
6386;SDS011;3226;42.162;24.756;2023-02-28T02:10:51;6.00;;;5.80;;
6386;SDS011;3226;42.162;24.756;2023-02-28T02:13:34;6.10;;;5.90;;
6386;SDS011;3226;42.162;24.756;2023-02-28T02:16:14;5.90;;;5.70;;
6386;SDS011;3226;42.162;24.756;2023-02-28T02:18:53;7.10;;;6.80;;
6386;SDS011;3226;42.162;24.756;2023-02-28T02:24:44;6.70;;;6.40;;
6386;SDS011;3226;42.162;24.756;2023-02-28T02:27:28;7.03;;;6.73;;
6386;SDS011;3226;42.162;24.756;2023-02-28T02:36:41;8.27;;;7.97;;
6386;SDS011;3226;42.162;24.756;2023-02-28T02:39:16;6.83;;;6.53;;
6386;SDS011;3226;42.162;24.756;2023-02-28T02:41:53;7.63;;;7.33;;
6386;SDS011;3226;42.162;24.756;2023-02-28T02:44:24;6.70;;;6.40;;
6386;SDS011;3226;42.162;24.756;2023-02-28T02:46:58;7.37;;;7.07;;
6386;SDS011;3226;42.162;24.756;2023-02-28T02:49:32;8.10;;;7.80;;
6386;SDS011;3226;42.162;24.756;2023-02-28T02:52:03;7.73;;;7.43;;
6386;SDS011;3226;42.162;24.756;2023-02-28T02:54:34;6.77;;;6.47;;
6386;SDS011;3226;42.162;24.756;2023-02-28T02:57:05;7.40;;;7.10;;
6386;SDS011;3226;42.162;24.756;2023-02-28T02:59:36;6.93;;;6.63;;
6386;SDS011;3226;42.162;24.756;2023-02-28T03:02:07;7.17;;;6.87;;
6386;SDS011;3226;42.162;24.756;2023-02-28T03:04:42;7.87;;;7.57;;
6386;SDS011;3226;42.162;24.756;2023-02-28T03:07:12;8.37;;;8.03;;
6386;SDS011;3226;42.162;24.756;2023-02-28T03:09:40;6.60;;;6.30;;
6386;SDS011;3226;42.162;24.756;2023-02-28T03:12:18;6.90;;;6.60;;
6386;SDS011;3226;42.162;24.756;2023-02-28T03:14:50;6.73;;;6.43;;
6386;SDS011;3226;42.162;24.756;2023-02-28T03:17:27;7.13;;;6.83;;
6386;SDS011;3226;42.162;24.756;2023-02-28T03:20:06;6.13;;;5.93;;
6386;SDS011;3226;42.162;24.756;2023-02-28T03:22:47;7.67;;;7.37;;
6386;SDS011;3226;42.162;24.756;2023-02-28T03:25:27;7.60;;;7.30;;
6386;SDS011;3226;42.162;24.756;2023-02-28T03:28:00;6.83;;;6.53;;
6386;SDS011;3226;42.162;24.756;2023-02-28T03:30:36;7.37;;;7.07;;
6386;SDS011;3226;42.162;24.756;2023-02-28T03:33:10;6.93;;;6.63;;
6386;SDS011;3226;42.162;24.756;2023-02-28T03:35:43;7.57;;;7.27;;
6386;SDS011;3226;42.162;24.756;2023-02-28T03:38:17;7.13;;;6.83;;
6386;SDS011;3226;42.162;24.756;2023-02-28T03:40:50;7.20;;;6.90;;
6386;SDS011;3226;42.162;24.756;2023-02-28T03:43:23;7.17;;;6.87;;
6386;SDS011;3226;42.162;24.756;2023-02-28T03:45:56;7.33;;;7.03;;
6386;SDS011;3226;42.162;24.756;2023-02-28T03:48:28;6.43;;;6.13;;
6386;SDS011;3226;42.162;24.756;2023-02-28T03:51:04;6.33;;;6.07;;
6386;SDS011;3226;42.162;24.756;2023-02-28T03:53:38;6.50;;;6.20;;
6386;SDS011;3226;42.162;24.756;2023-02-28T03:56:12;6.97;;;6.67;;
6386;SDS011;3226;42.162;24.756;2023-02-28T03:58:45;6.70;;;6.40;;
6386;SDS011;3226;42.162;24.756;2023-02-28T04:01:18;6.67;;;6.37;;
6386;SDS011;3226;42.162;24.756;2023-02-28T04:03:50;6.87;;;6.57;;
6386;SDS011;3226;42.162;24.756;2023-02-28T04:06:20;6.40;;;6.13;;
6386;SDS011;3226;42.162;24.756;2023-02-28T04:08:49;7.23;;;6.93;;
6386;SDS011;3226;42.162;24.756;2023-02-28T04:11:22;7.17;;;6.87;;
6386;SDS011;3226;42.162;24.756;2023-02-28T04:13:53;7.00;;;6.70;;
6386;SDS011;3226;42.162;24.756;2023-02-28T04:16:22;7.10;;;6.80;;
6386;SDS011;3226;42.162;24.756;2023-02-28T04:19:00;6.77;;;6.47;;
6386;SDS011;3226;42.162;24.756;2023-02-28T04:21:32;6.80;;;6.50;;
6386;SDS011;3226;42.162;24.756;2023-02-28T04:24:03;6.97;;;6.67;;
6386;SDS011;3226;42.162;24.756;2023-02-28T04:26:32;7.37;;;7.07;;
6386;SDS011;3226;42.162;24.756;2023-02-28T04:29:00;7.50;;;7.20;;
6386;SDS011;3226;42.162;24.756;2023-02-28T04:31:29;6.97;;;6.67;;
6386;SDS011;3226;42.162;24.756;2023-02-28T04:33:58;7.03;;;6.73;;
6386;SDS011;3226;42.162;24.756;2023-02-28T04:36:27;6.70;;;6.40;;
6386;SDS011;3226;42.162;24.756;2023-02-28T04:38:56;6.90;;;6.60;;
6386;SDS011;3226;42.162;24.756;2023-02-28T04:41:25;6.87;;;6.57;;
6386;SDS011;3226;42.162;24.756;2023-02-28T04:43:57;7.07;;;6.77;;
6386;SDS011;3226;42.162;24.756;2023-02-28T04:46:25;6.97;;;6.67;;
6386;SDS011;3226;42.162;24.756;2023-02-28T04:48:53;7.10;;;6.80;;
6386;SDS011;3226;42.162;24.756;2023-02-28T04:51:21;7.07;;;6.77;;
6386;SDS011;3226;42.162;24.756;2023-02-28T04:53:49;7.47;;;7.17;;
6386;SDS011;3226;42.162;24.756;2023-02-28T04:56:19;7.30;;;7.00;;
6386;SDS011;3226;42.162;24.756;2023-02-28T04:58:47;6.87;;;6.57;;
6386;SDS011;3226;42.162;24.756;2023-02-28T05:01:16;6.87;;;6.57;;
6386;SDS011;3226;42.162;24.756;2023-02-28T05:03:47;7.20;;;6.90;;
6386;SDS011;3226;42.162;24.756;2023-02-28T05:06:15;7.13;;;6.83;;
6386;SDS011;3226;42.162;24.756;2023-02-28T05:08:44;6.90;;;6.60;;
6386;SDS011;3226;42.162;24.756;2023-02-28T05:11:13;6.90;;;6.60;;
6386;SDS011;3226;42.162;24.756;2023-02-28T05:13:45;6.80;;;6.50;;
6386;SDS011;3226;42.162;24.756;2023-02-28T05:16:14;7.03;;;6.73;;
6386;SDS011;3226;42.162;24.756;2023-02-28T05:18:43;7.30;;;7.00;;
6386;SDS011;3226;42.162;24.756;2023-02-28T05:21:22;6.53;;;6.23;;
6386;SDS011;3226;42.162;24.756;2023-02-28T05:23:54;6.33;;;6.10;;
6386;SDS011;3226;42.162;24.756;2023-02-28T05:26:22;7.13;;;6.77;;
6386;SDS011;3226;42.162;24.756;2023-02-28T05:28:52;5.93;;;5.73;;
6386;SDS011;3226;42.162;24.756;2023-02-28T05:31:21;7.10;;;6.80;;
6386;SDS011;3226;42.162;24.756;2023-02-28T05:33:49;7.40;;;7.10;;
6386;SDS011;3226;42.162;24.756;2023-02-28T05:36:17;7.10;;;6.80;;
6386;SDS011;3226;42.162;24.756;2023-02-28T05:38:46;7.27;;;6.97;;
6386;SDS011;3226;42.162;24.756;2023-02-28T05:41:15;7.10;;;6.80;;
6386;SDS011;3226;42.162;24.756;2023-02-28T05:43:45;6.63;;;6.33;;
6386;SDS011;3226;42.162;24.756;2023-02-28T05:46:15;6.50;;;6.20;;
6386;SDS011;3226;42.162;24.756;2023-02-28T05:48:46;6.57;;;6.27;;
6386;SDS011;3226;42.162;24.756;2023-02-28T05:51:15;6.63;;;6.33;;
6386;SDS011;3226;42.162;24.756;2023-02-28T05:53:44;7.50;;;7.20;;
6386;SDS011;3226;42.162;24.756;2023-02-28T05:56:13;7.07;;;6.77;;
6386;SDS011;3226;42.162;24.756;2023-02-28T05:58:41;6.50;;;6.20;;
6386;SDS011;3226;42.162;24.756;2023-02-28T06:01:20;6.50;;;6.20;;
6386;SDS011;3226;42.162;24.756;2023-02-28T06:04:07;6.77;;;6.47;;
6386;SDS011;3226;42.162;24.756;2023-02-28T06:06:51;6.70;;;6.40;;
6386;SDS011;3226;42.162;24.756;2023-02-28T06:09:19;7.17;;;6.87;;
6386;SDS011;3226;42.162;24.756;2023-02-28T06:11:47;7.50;;;7.20;;
6386;SDS011;3226;42.162;24.756;2023-02-28T06:14:16;6.50;;;6.20;;
6386;SDS011;3226;42.162;24.756;2023-02-28T06:16:47;7.33;;;7.03;;
6386;SDS011;3226;42.162;24.756;2023-02-28T06:19:15;7.57;;;7.27;;
6386;SDS011;3226;42.162;24.756;2023-02-28T06:21:43;6.40;;;6.13;;
6386;SDS011;3226;42.162;24.756;2023-02-28T06:24:11;7.67;;;7.37;;
6386;SDS011;3226;42.162;24.756;2023-02-28T06:26:39;7.37;;;7.07;;
6386;SDS011;3226;42.162;24.756;2023-02-28T06:29:07;7.53;;;7.23;;
6386;SDS011;3226;42.162;24.756;2023-02-28T06:31:35;7.23;;;6.93;;
6386;SDS011;3226;42.162;24.756;2023-02-28T06:34:05;7.03;;;6.73;;
6386;SDS011;3226;42.162;24.756;2023-02-28T06:36:33;8.30;;;7.70;;
6386;SDS011;3226;42.162;24.756;2023-02-28T06:39:02;6.53;;;6.23;;
6386;SDS011;3226;42.162;24.756;2023-02-28T06:41:30;7.30;;;7.00;;
6386;SDS011;3226;42.162;24.756;2023-02-28T06:44:17;6.97;;;6.67;;
6386;SDS011;3226;42.162;24.756;2023-02-28T06:46:45;7.60;;;7.30;;
6386;SDS011;3226;42.162;24.756;2023-02-28T06:49:15;6.53;;;6.23;;
6386;SDS011;3226;42.162;24.756;2023-02-28T06:51:44;7.63;;;7.33;;
6386;SDS011;3226;42.162;24.756;2023-02-28T06:54:12;7.60;;;7.30;;
6386;SDS011;3226;42.162;24.756;2023-02-28T06:56:40;7.57;;;7.27;;
6386;SDS011;3226;42.162;24.756;2023-02-28T06:59:08;7.80;;;7.50;;
6386;SDS011;3226;42.162;24.756;2023-02-28T07:01:36;6.97;;;6.68;;
6386;SDS011;3226;42.162;24.756;2023-02-28T07:04:05;7.13;;;6.83;;
6386;SDS011;3226;42.162;24.756;2023-02-28T07:06:36;7.00;;;6.70;;
6386;SDS011;3226;42.162;24.756;2023-02-28T07:09:03;7.73;;;7.43;;
6386;SDS011;3226;42.162;24.756;2023-02-28T07:11:32;7.30;;;7.00;;
6386;SDS011;3226;42.162;24.756;2023-02-28T07:14:00;7.10;;;6.80;;
6386;SDS011;3226;42.162;24.756;2023-02-28T07:16:28;7.37;;;7.07;;
6386;SDS011;3226;42.162;24.756;2023-02-28T07:18:56;5.93;;;5.73;;
6386;SDS011;3226;42.162;24.756;2023-02-28T07:21:24;6.83;;;6.53;;
6386;SDS011;3226;42.162;24.756;2023-02-28T07:23:55;6.07;;;5.87;;
6386;SDS011;3226;42.162;24.756;2023-02-28T07:26:23;7.10;;;6.80;;
6386;SDS011;3226;42.162;24.756;2023-02-28T07:28:51;7.30;;;7.00;;
6386;SDS011;3226;42.162;24.756;2023-02-28T07:31:20;7.00;;;6.70;;
6386;SDS011;3226;42.162;24.756;2023-02-28T07:33:48;7.23;;;6.93;;
6386;SDS011;3226;42.162;24.756;2023-02-28T07:36:16;8.63;;;8.23;;
6386;SDS011;3226;42.162;24.756;2023-02-28T07:38:46;6.47;;;6.17;;
6386;SDS011;3226;42.162;24.756;2023-02-28T07:41:18;7.30;;;7.00;;
6386;SDS011;3226;42.162;24.756;2023-02-28T07:43:47;6.87;;;6.57;;
6386;SDS011;3226;42.162;24.756;2023-02-28T07:46:16;7.00;;;6.70;;
6386;SDS011;3226;42.162;24.756;2023-02-28T07:48:46;6.57;;;6.27;;
6386;SDS011;3226;42.162;24.756;2023-02-28T07:51:14;7.60;;;7.30;;
6386;SDS011;3226;42.162;24.756;2023-02-28T07:53:42;6.73;;;6.43;;
6386;SDS011;3226;42.162;24.756;2023-02-28T07:56:10;7.53;;;7.23;;
6386;SDS011;3226;42.162;24.756;2023-02-28T07:58:40;7.60;;;7.30;;
6386;SDS011;3226;42.162;24.756;2023-02-28T08:01:08;7.50;;;7.20;;
6386;SDS011;3226;42.162;24.756;2023-02-28T08:03:37;7.23;;;6.93;;
6386;SDS011;3226;42.162;24.756;2023-02-28T08:06:06;7.40;;;7.10;;
6386;SDS011;3226;42.162;24.756;2023-02-28T08:08:36;7.50;;;7.20;;
6386;SDS011;3226;42.162;24.756;2023-02-28T08:11:04;7.00;;;6.70;;
6386;SDS011;3226;42.162;24.756;2023-02-28T08:13:32;7.10;;;6.80;;
6386;SDS011;3226;42.162;24.756;2023-02-28T08:16:02;6.90;;;6.60;;
6386;SDS011;3226;42.162;24.756;2023-02-28T08:18:30;6.97;;;6.67;;
6386;SDS011;3226;42.162;24.756;2023-02-28T08:20:59;7.13;;;6.83;;
6386;SDS011;3226;42.162;24.756;2023-02-28T08:23:32;7.87;;;7.57;;
6386;SDS011;3226;42.162;24.756;2023-02-28T08:26:01;7.37;;;7.07;;
6386;SDS011;3226;42.162;24.756;2023-02-28T08:28:30;7.30;;;7.00;;
6386;SDS011;3226;42.162;24.756;2023-02-28T08:30:59;7.53;;;7.23;;
6386;SDS011;3226;42.162;24.756;2023-02-28T08:33:28;8.47;;;8.10;;
6386;SDS011;3226;42.162;24.756;2023-02-28T08:35:57;6.77;;;6.47;;
6386;SDS011;3226;42.162;24.756;2023-02-28T08:38:25;7.03;;;6.73;;
6386;SDS011;3226;42.162;24.756;2023-02-28T08:40:56;7.53;;;7.23;;
6386;SDS011;3226;42.162;24.756;2023-02-28T08:43:25;6.60;;;6.30;;
6386;SDS011;3226;42.162;24.756;2023-02-28T08:45:54;7.27;;;6.97;;
6386;SDS011;3226;42.162;24.756;2023-02-28T08:48:23;6.80;;;6.50;;
6386;SDS011;3226;42.162;24.756;2023-02-28T08:50:56;7.17;;;6.87;;
6386;SDS011;3226;42.162;24.756;2023-02-28T08:53:33;7.40;;;7.10;;
6386;SDS011;3226;42.162;24.756;2023-02-28T08:56:01;7.37;;;7.07;;
6386;SDS011;3226;42.162;24.756;2023-02-28T08:58:31;7.30;;;7.00;;
6386;SDS011;3226;42.162;24.756;2023-02-28T09:00:59;7.33;;;7.03;;
6386;SDS011;3226;42.162;24.756;2023-02-28T09:03:28;6.93;;;6.63;;
6386;SDS011;3226;42.162;24.756;2023-02-28T09:05:58;7.43;;;7.13;;
6386;SDS011;3226;42.162;24.756;2023-02-28T09:08:28;7.17;;;6.87;;
6386;SDS011;3226;42.162;24.756;2023-02-28T09:10:57;8.03;;;7.73;;
6386;SDS011;3226;42.162;24.756;2023-02-28T09:13:27;7.03;;;6.73;;
6386;SDS011;3226;42.162;24.756;2023-02-28T09:15:57;7.40;;;7.10;;
6386;SDS011;3226;42.162;24.756;2023-02-28T09:18:26;7.37;;;7.07;;
6386;SDS011;3226;42.162;24.756;2023-02-28T09:20:54;7.93;;;7.63;;
6386;SDS011;3226;42.162;24.756;2023-02-28T09:23:25;6.97;;;6.67;;
6386;SDS011;3226;42.162;24.756;2023-02-28T09:25:53;6.93;;;6.63;;
6386;SDS011;3226;42.162;24.756;2023-02-28T09:28:22;7.17;;;6.87;;
6386;SDS011;3226;42.162;24.756;2023-02-28T09:30:51;6.93;;;6.63;;
6386;SDS011;3226;42.162;24.756;2023-02-28T09:33:21;7.00;;;6.70;;
6386;SDS011;3226;42.162;24.756;2023-02-28T09:35:49;7.17;;;6.87;;
6386;SDS011;3226;42.162;24.756;2023-02-28T09:38:18;7.40;;;7.10;;
6386;SDS011;3226;42.162;24.756;2023-02-28T09:40:48;6.47;;;6.17;;
6386;SDS011;3226;42.162;24.756;2023-02-28T09:43:20;7.73;;;7.43;;
6386;SDS011;3226;42.162;24.756;2023-02-28T09:45:51;7.63;;;7.33;;
6386;SDS011;3226;42.162;24.756;2023-02-28T09:48:28;6.97;;;6.67;;
6386;SDS011;3226;42.162;24.756;2023-02-28T09:51:02;7.93;;;7.63;;
6386;SDS011;3226;42.162;24.756;2023-02-28T09:53:32;7.37;;;7.07;;
6386;SDS011;3226;42.162;24.756;2023-02-28T09:56:08;7.07;;;6.77;;
6386;SDS011;3226;42.162;24.756;2023-02-28T09:58:39;7.03;;;6.73;;
6386;SDS011;3226;42.162;24.756;2023-02-28T10:01:17;7.17;;;6.87;;
6386;SDS011;3226;42.162;24.756;2023-02-28T10:03:55;6.63;;;6.33;;
6386;SDS011;3226;42.162;24.756;2023-02-28T10:06:27;8.13;;;7.73;;
6386;SDS011;3226;42.162;24.756;2023-02-28T10:08:58;8.07;;;7.77;;
6386;SDS011;3226;42.162;24.756;2023-02-28T10:11:33;8.03;;;7.73;;
6386;SDS011;3226;42.162;24.756;2023-02-28T10:14:04;8.03;;;7.73;;
6386;SDS011;3226;42.162;24.756;2023-02-28T10:16:38;7.40;;;7.10;;
6386;SDS011;3226;42.162;24.756;2023-02-28T10:19:13;7.30;;;7.00;;
6386;SDS011;3226;42.162;24.756;2023-02-28T10:21:47;7.97;;;7.67;;
6386;SDS011;3226;42.162;24.756;2023-02-28T10:24:25;7.47;;;7.17;;
6386;SDS011;3226;42.162;24.756;2023-02-28T10:26:59;6.90;;;6.60;;
6386;SDS011;3226;42.162;24.756;2023-02-28T10:29:29;7.17;;;6.87;;
6386;SDS011;3226;42.162;24.756;2023-02-28T10:32:01;9.30;;;8.90;;
6386;SDS011;3226;42.162;24.756;2023-02-28T10:34:31;7.10;;;6.80;;
6386;SDS011;3226;42.162;24.756;2023-02-28T10:36:59;7.07;;;6.77;;
6386;SDS011;3226;42.162;24.756;2023-02-28T10:39:34;9.30;;;8.90;;
6386;SDS011;3226;42.162;24.756;2023-02-28T10:42:19;7.73;;;7.43;;
6386;SDS011;3226;42.162;24.756;2023-02-28T10:45:04;8.33;;;8.00;;
6386;SDS011;3226;42.162;24.756;2023-02-28T10:47:34;7.27;;;6.97;;
6386;SDS011;3226;42.162;24.756;2023-02-28T10:50:25;8.40;;;8.00;;
6386;SDS011;3226;42.162;24.756;2023-02-28T10:52:55;8.00;;;7.70;;
6386;SDS011;3226;42.162;24.756;2023-02-28T10:55:36;6.87;;;6.57;;
6386;SDS011;3226;42.162;24.756;2023-02-28T10:58:14;7.77;;;7.47;;
6386;SDS011;3226;42.162;24.756;2023-02-28T11:00:48;8.47;;;8.10;;
6386;SDS011;3226;42.162;24.756;2023-02-28T11:03:28;7.97;;;7.67;;
6386;SDS011;3226;42.162;24.756;2023-02-28T11:05:58;9.20;;;8.80;;
6386;SDS011;3226;42.162;24.756;2023-02-28T11:08:31;9.50;;;9.10;;
6386;SDS011;3226;42.162;24.756;2023-02-28T11:11:03;6.97;;;6.67;;
6386;SDS011;3226;42.162;24.756;2023-02-28T11:13:35;8.27;;;7.93;;
6386;SDS011;3226;42.162;24.756;2023-02-28T11:16:04;7.63;;;7.33;;
6386;SDS011;3226;42.162;24.756;2023-02-28T11:18:36;7.43;;;7.13;;
6386;SDS011;3226;42.162;24.756;2023-02-28T11:21:08;7.43;;;7.13;;
6386;SDS011;3226;42.162;24.756;2023-02-28T11:23:43;7.70;;;7.40;;
6386;SDS011;3226;42.162;24.756;2023-02-28T11:26:11;6.60;;;6.30;;
6386;SDS011;3226;42.162;24.756;2023-02-28T11:28:41;7.63;;;7.33;;
6386;SDS011;3226;42.162;24.756;2023-02-28T11:31:16;8.07;;;7.77;;
6386;SDS011;3226;42.162;24.756;2023-02-28T11:33:49;7.93;;;7.63;;
6386;SDS011;3226;42.162;24.756;2023-02-28T11:36:19;7.53;;;7.23;;
6386;SDS011;3226;42.162;24.756;2023-02-28T11:38:51;8.13;;;7.83;;
6386;SDS011;3226;42.162;24.756;2023-02-28T11:41:30;7.83;;;7.53;;
6386;SDS011;3226;42.162;24.756;2023-02-28T11:44:18;7.83;;;7.53;;
6386;SDS011;3226;42.162;24.756;2023-02-28T11:46:56;7.73;;;7.43;;
6386;SDS011;3226;42.162;24.756;2023-02-28T11:49:32;7.63;;;7.33;;
6386;SDS011;3226;42.162;24.756;2023-02-28T11:52:06;8.57;;;8.17;;
6386;SDS011;3226;42.162;24.756;2023-02-28T11:54:59;8.27;;;7.97;;
6386;SDS011;3226;42.162;24.756;2023-02-28T11:57:36;7.27;;;6.97;;
6386;SDS011;3226;42.162;24.756;2023-02-28T12:00:24;7.23;;;6.93;;
6386;SDS011;3226;42.162;24.756;2023-02-28T12:03:04;7.47;;;7.17;;
6386;SDS011;3226;42.162;24.756;2023-02-28T12:05:44;7.70;;;7.40;;
6386;SDS011;3226;42.162;24.756;2023-02-28T12:08:21;7.60;;;7.30;;
6386;SDS011;3226;42.162;24.756;2023-02-28T12:11:01;6.93;;;6.63;;
6386;SDS011;3226;42.162;24.756;2023-02-28T12:13:41;7.13;;;6.83;;
6386;SDS011;3226;42.162;24.756;2023-02-28T12:16:29;6.97;;;6.67;;
6386;SDS011;3226;42.162;24.756;2023-02-28T12:19:13;6.63;;;6.33;;
6386;SDS011;3226;42.162;24.756;2023-02-28T12:21:50;6.90;;;6.60;;
6386;SDS011;3226;42.162;24.756;2023-02-28T12:24:44;7.10;;;6.80;;
6386;SDS011;3226;42.162;24.756;2023-02-28T12:27:22;7.07;;;6.77;;
6386;SDS011;3226;42.162;24.756;2023-02-28T12:29:56;6.13;;;5.93;;
6386;SDS011;3226;42.162;24.756;2023-02-28T12:32:35;7.07;;;6.77;;
6386;SDS011;3226;42.162;24.756;2023-02-28T12:35:10;7.03;;;6.73;;
6386;SDS011;3226;42.162;24.756;2023-02-28T12:37:41;7.33;;;7.03;;
6386;SDS011;3226;42.162;24.756;2023-02-28T12:40:14;7.20;;;6.90;;
6386;SDS011;3226;42.162;24.756;2023-02-28T12:42:47;6.73;;;6.43;;
6386;SDS011;3226;42.162;24.756;2023-02-28T12:45:18;6.17;;;5.97;;
6386;SDS011;3226;42.162;24.756;2023-02-28T12:47:50;6.87;;;6.57;;
6386;SDS011;3226;42.162;24.756;2023-02-28T12:50:24;6.80;;;6.50;;
6386;SDS011;3226;42.162;24.756;2023-02-28T12:52:58;6.80;;;6.50;;
6386;SDS011;3226;42.162;24.756;2023-02-28T12:55:32;6.83;;;6.53;;
6386;SDS011;3226;42.162;24.756;2023-02-28T12:58:10;6.90;;;6.60;;
6386;SDS011;3226;42.162;24.756;2023-02-28T13:00:45;6.57;;;6.27;;
6386;SDS011;3226;42.162;24.756;2023-02-28T13:03:39;6.90;;;6.60;;
6386;SDS011;3226;42.162;24.756;2023-02-28T13:06:38;7.47;;;7.17;;
6386;SDS011;3226;42.162;24.756;2023-02-28T13:09:19;7.83;;;7.53;;
6386;SDS011;3226;42.162;24.756;2023-02-28T13:11:48;7.10;;;6.80;;
6386;SDS011;3226;42.162;24.756;2023-02-28T13:14:20;7.17;;;6.87;;
6386;SDS011;3226;42.162;24.756;2023-02-28T13:16:55;7.50;;;7.20;;
6386;SDS011;3226;42.162;24.756;2023-02-28T13:19:32;9.93;;;9.43;;
6386;SDS011;3226;42.162;24.756;2023-02-28T13:22:03;7.10;;;6.80;;
6386;SDS011;3226;42.162;24.756;2023-02-28T13:24:38;6.43;;;6.13;;
6386;SDS011;3226;42.162;24.756;2023-02-28T13:27:19;8.70;;;8.30;;
6386;SDS011;3226;42.162;24.756;2023-02-28T13:33:27;18.67;;;17.80;;
6386;SDS011;3226;42.162;24.756;2023-02-28T13:36:11;8.80;;;8.43;;
6386;SDS011;3226;42.162;24.756;2023-02-28T13:38:52;7.50;;;7.20;;
6386;SDS011;3226;42.162;24.756;2023-02-28T13:44:17;17.87;;;17.07;;
6386;SDS011;3226;42.162;24.756;2023-02-28T13:49:48;11.07;;;10.57;;
6386;SDS011;3226;42.162;24.756;2023-02-28T13:52:20;12.27;;;11.73;;
6386;SDS011;3226;42.162;24.756;2023-02-28T13:54:53;12.23;;;11.73;;
6386;SDS011;3226;42.162;24.756;2023-02-28T13:57:30;12.17;;;11.67;;
6386;SDS011;3226;42.162;24.756;2023-02-28T14:00:14;10.67;;;10.17;;
6386;SDS011;3226;42.162;24.756;2023-02-28T14:02:54;13.00;;;12.40;;
6386;SDS011;3226;42.162;24.756;2023-02-28T14:05:38;19.83;;;18.93;;
6386;SDS011;3226;42.162;24.756;2023-02-28T14:08:10;22.40;;;21.33;;
6386;SDS011;3226;42.162;24.756;2023-02-28T14:10:44;11.23;;;10.77;;
6386;SDS011;3226;42.162;24.756;2023-02-28T14:16:11;14.20;;;13.57;;
6386;SDS011;3226;42.162;24.756;2023-02-28T14:18:42;20.80;;;19.80;;
6386;SDS011;3226;42.162;24.756;2023-02-28T14:21:20;16.43;;;15.67;;
6386;SDS011;3226;42.162;24.756;2023-02-28T14:24:10;11.33;;;10.83;;
6386;SDS011;3226;42.162;24.756;2023-02-28T14:27:17;9.57;;;9.17;;
6386;SDS011;3226;42.162;24.756;2023-02-28T14:33:01;8.67;;;8.27;;
6386;SDS011;3226;42.162;24.756;2023-02-28T14:35:45;10.40;;;10.00;;
6386;SDS011;3226;42.162;24.756;2023-02-28T14:38:24;11.97;;;11.47;;
6386;SDS011;3226;42.162;24.756;2023-02-28T14:40:56;15.80;;;15.10;;
6386;SDS011;3226;42.162;24.756;2023-02-28T14:43:26;14.63;;;13.93;;
6386;SDS011;3226;42.162;24.756;2023-02-28T14:45:56;9.67;;;9.27;;
6386;SDS011;3226;42.162;24.756;2023-02-28T14:48:27;11.97;;;11.47;;
6386;SDS011;3226;42.162;24.756;2023-02-28T14:50:56;11.23;;;10.77;;
6386;SDS011;3226;42.162;24.756;2023-02-28T14:53:27;8.93;;;8.53;;
6386;SDS011;3226;42.162;24.756;2023-02-28T14:55:59;14.67;;;14.00;;
6386;SDS011;3226;42.162;24.756;2023-02-28T14:58:28;12.50;;;11.93;;
6386;SDS011;3226;42.162;24.756;2023-02-28T15:00:57;11.20;;;10.70;;
6386;SDS011;3226;42.162;24.756;2023-02-28T15:03:29;11.53;;;11.03;;
6386;SDS011;3226;42.162;24.756;2023-02-28T15:05:59;10.23;;;9.80;;
6386;SDS011;3226;42.162;24.756;2023-02-28T15:08:29;10.77;;;10.27;;
6386;SDS011;3226;42.162;24.756;2023-02-28T15:11:03;18.53;;;17.67;;
6386;SDS011;3226;42.162;24.756;2023-02-28T15:13:34;21.53;;;20.53;;
6386;SDS011;3226;42.162;24.756;2023-02-28T15:16:06;24.07;;;22.93;;
6386;SDS011;3226;42.162;24.756;2023-02-28T15:18:41;14.00;;;13.40;;
6386;SDS011;3226;42.162;24.756;2023-02-28T15:21:13;12.57;;;12.00;;
6386;SDS011;3226;42.162;24.756;2023-02-28T15:23:45;15.97;;;15.27;;
6386;SDS011;3226;42.162;24.756;2023-02-28T15:26:18;19.23;;;18.33;;
6386;SDS011;3226;42.162;24.756;2023-02-28T15:28:48;18.57;;;17.73;;
6386;SDS011;3226;42.162;24.756;2023-02-28T15:31:21;22.97;;;21.87;;
6386;SDS011;3226;42.162;24.756;2023-02-28T15:33:54;23.33;;;22.23;;
6386;SDS011;3226;42.162;24.756;2023-02-28T15:36:24;21.77;;;20.77;;
6386;SDS011;3226;42.162;24.756;2023-02-28T15:38:55;11.50;;;11.00;;
6386;SDS011;3226;42.162;24.756;2023-02-28T15:41:41;20.30;;;19.37;;
6386;SDS011;3226;42.162;24.756;2023-02-28T15:44:23;35.23;;;33.53;;
6386;SDS011;3226;42.162;24.756;2023-02-28T15:46:54;12.40;;;11.87;;
6386;SDS011;3226;42.162;24.756;2023-02-28T15:49:27;34.40;;;32.73;;
6386;SDS011;3226;42.162;24.756;2023-02-28T15:52:10;54.63;;;51.97;;
6386;SDS011;3226;42.162;24.756;2023-02-28T15:54:41;16.53;;;15.73;;